Time,TemperatureF,DewpointF,PressureIn,WindDirection,WindDirectionDegrees,WindSpeedMPH,WindSpeedGustMPH,Humidity,HourlyPrecipIn,Conditions,Clouds,dailyrainin,SolarRadiationWatts/m^2,SoftwareType,DateUTC
2013-09-05 00:03:00,76.0,74.0,-100.00,ENE,58,0.0,0.0,92,0.00,,,0.00,11.000000,,2013-09-05 05:03:00,
2013-09-05 00:12:00,76.0,74.0,-100.00,ENE,58,0.0,0.0,92,0.00,,,0.00,11.000000,,2013-09-05 05:12:00,
2013-09-05 00:23:00,76.0,74.0,-100.00,ENE,58,0.0,0.0,92,0.00,,,0.00,11.000000,,2013-09-05 05:23:00,
2013-09-05 00:52:00,75.0,73.0,-100.00,NNE,14,0.0,0.0,92,0.00,,,0.00,11.000000,,2013-09-05 05:52:00,
2013-09-05 01:02:00,75.0,73.0,-100.00,NNE,14,0.0,0.0,92,0.00,,,0.00,11.000000,,2013-09-05 06:02:00,
2013-09-05 01:12:00,75.0,73.0,-100.00,NNE,14,0.0,0.0,92,0.00,,,0.00,11.000000,,2013-09-05 06:12:00,
2013-09-05 01:21:00,75.0,73.0,-100.00,NNE,14,0.0,0.0,92,0.00,,,0.00,11.000000,,2013-09-05 06:21:00,
2013-09-05 01:52:00,74.0,72.0,-100.00,SE,139,0.0,0.0,92,0.00,,,0.00,11.000000,,2013-09-05 06:52:00,
2013-09-05 02:01:00,74.0,72.0,-100.00,SE,139,0.0,0.0,92,0.00,,,0.00,11.000000,,2013-09-05 07:01:00,
2013-09-05 02:12:00,74.0,72.0,-100.00,SE,139,0.0,0.0,92,0.00,,,0.00,11.000000,,2013-09-05 07:12:00,
2013-09-05 02:23:00,74.0,72.0,-100.00,SE,139,0.0,0.0,92,0.00,,,0.00,11.000000,,2013-09-05 07:23:00,
2013-09-05 02:52:00,73.0,71.0,-100.00,North,354,0.0,0.0,92,0.00,,,0.00,11.000000,,2013-09-05 07:52:00,
2013-09-05 03:03:00,73.0,71.0,-100.00,North,354,0.0,0.0,92,0.00,,,0.00,11.000000,,2013-09-05 08:03:00,
2013-09-05 03:12:00,73.0,71.0,-100.00,North,354,0.0,0.0,92,0.00,,,0.00,11.000000,,2013-09-05 08:12:00,
2013-09-05 03:22:00,73.0,71.0,-100.00,North,354,0.0,0.0,92,0.00,,,0.00,11.000000,,2013-09-05 08:22:00,
2013-09-05 03:52:00,73.0,71.0,-100.00,NNW,348,0.0,0.0,93,0.00,,,0.00,11.000000,,2013-09-05 08:52:00,
2013-09-05 04:02:00,73.0,71.0,-100.00,NNW,348,0.0,0.0,93,0.00,,,0.00,11.000000,,2013-09-05 09:02:00,
2013-09-05 04:11:00,73.0,71.0,-100.00,NNW,348,0.0,0.0,93,0.00,,,0.00,11.000000,,2013-09-05 09:11:00,
2013-09-05 04:22:00,73.0,71.0,-100.00,NNW,348,0.0,0.0,93,0.00,,,0.00,11.000000,,2013-09-05 09:22:00,
2013-09-05 04:54:00,72.0,70.0,-100.00,WNW,299,0.0,2.0,93,0.00,,,0.00,11.000000,,2013-09-05 09:54:00,
2013-09-05 05:03:00,72.0,70.0,-100.00,WNW,299,0.0,2.0,93,0.00,,,0.00,11.000000,,2013-09-05 10:03:00,
2013-09-05 05:12:00,72.0,70.0,-100.00,WNW,299,0.0,2.0,93,0.00,,,0.00,11.000000,,2013-09-05 10:12:00,
2013-09-05 05:23:00,72.0,70.0,-100.00,WNW,299,0.0,2.0,93,0.00,,,0.00,11.000000,,2013-09-05 10:23:00,
2013-09-05 05:53:00,72.0,70.0,-100.00,NW,326,0.0,2.0,93,0.00,,,0.00,11.000000,,2013-09-05 10:53:00,
2013-09-05 06:03:00,72.0,70.0,-100.00,NW,326,0.0,2.0,93,0.00,,,0.00,11.000000,,2013-09-05 11:03:00,
2013-09-05 06:12:00,72.0,70.0,-100.00,NW,326,0.0,2.0,93,0.00,,,0.00,11.000000,,2013-09-05 11:12:00,
2013-09-05 06:21:00,72.0,70.0,-100.00,NW,326,0.0,2.0,93,0.00,,,0.00,11.000000,,2013-09-05 11:21:00,
2013-09-05 06:52:00,72.0,70.0,-100.00,NW,309,0.0,0.0,93,0.00,,,0.00,11.000000,,2013-09-05 11:52:00,
2013-09-05 07:01:00,72.0,70.0,-100.00,NW,309,0.0,0.0,93,0.00,,,0.00,11.000000,,2013-09-05 12:01:00,
2013-09-05 07:13:00,72.0,70.0,-100.00,NW,309,0.0,0.0,93,0.00,,,0.00,11.000000,,2013-09-05 12:13:00,
2013-09-05 07:21:00,72.0,70.0,-100.00,NW,309,0.0,0.0,93,0.00,,,0.00,11.000000,,2013-09-05 12:21:00,
2013-09-05 07:52:00,75.0,73.0,-100.00,NNE,15,0.0,0.0,93,0.00,,,0.00,47.000000,,2013-09-05 12:52:00,
2013-09-05 08:01:00,75.0,73.0,-100.00,NNE,15,0.0,0.0,93,0.00,,,0.00,47.000000,,2013-09-05 13:01:00,
2013-09-05 08:12:00,75.0,73.0,-100.00,NNE,15,0.0,0.0,93,0.00,,,0.00,47.000000,,2013-09-05 13:12:00,
2013-09-05 08:21:00,75.0,73.0,-100.00,NNE,15,0.0,0.0,93,0.00,,,0.00,47.000000,,2013-09-05 13:21:00,
2013-09-05 08:53:00,84.0,76.0,-100.00,ENE,69,2.0,4.0,76,0.00,,,0.00,262.000000,,2013-09-05 13:53:00,
2013-09-05 09:02:00,84.0,76.0,-100.00,ENE,69,2.0,4.0,76,0.00,,,0.00,262.000000,,2013-09-05 14:02:00,
2013-09-05 09:12:00,84.0,76.0,-100.00,ENE,69,2.0,4.0,76,0.00,,,0.00,262.000000,,2013-09-05 14:12:00,
2013-09-05 09:22:00,84.0,76.0,-100.00,ENE,69,2.0,4.0,76,0.00,,,0.00,262.000000,,2013-09-05 14:22:00,
2013-09-05 09:52:00,88.0,74.0,-100.00,NNE,28,3.0,5.0,63,0.00,,,0.00,513.000000,,2013-09-05 14:52:00,
2013-09-05 10:02:00,88.0,74.0,-100.00,NNE,28,3.0,5.0,63,0.00,,,0.00,513.000000,,2013-09-05 15:02:00,
2013-09-05 10:11:00,88.0,74.0,-100.00,NNE,28,3.0,5.0,63,0.00,,,0.00,513.000000,,2013-09-05 15:11:00,
2013-09-05 10:22:00,88.0,74.0,-100.00,NNE,28,3.0,5.0,63,0.00,,,0.00,513.000000,,2013-09-05 15:22:00,
2013-09-05 10:54:00,90.0,73.0,-100.00,ENE,65,4.0,7.0,58,0.00,,,0.00,663.000000,,2013-09-05 15:54:00,
2013-09-05 11:03:00,90.0,73.0,-100.00,ENE,65,4.0,7.0,58,0.00,,,0.00,663.000000,,2013-09-05 16:03:00,
2013-09-05 11:13:00,90.0,73.0,-100.00,ENE,65,4.0,7.0,58,0.00,,,0.00,663.000000,,2013-09-05 16:13:00,
2013-09-05 11:24:00,90.0,73.0,-100.00,ENE,65,4.0,7.0,58,0.00,,,0.00,663.000000,,2013-09-05 16:24:00,
2013-09-05 12:52:00,76.0,72.0,-100.00,West,275,7.0,13.0,87,-99.99,,,0.57,278.000000,,2013-09-05 17:52:00,
2013-09-05 13:02:00,76.0,72.0,-100.00,West,275,7.0,13.0,87,-99.99,,,0.57,278.000000,,2013-09-05 18:02:00,
2013-09-05 13:12:00,76.0,72.0,-100.00,West,275,7.0,13.0,87,-99.99,,,0.57,278.000000,,2013-09-05 18:12:00,
2013-09-05 13:22:00,76.0,72.0,-100.00,West,275,7.0,13.0,87,-99.99,,,0.57,278.000000,,2013-09-05 18:22:00,
2013-09-05 13:52:00,85.0,70.0,-100.00,West,260,4.0,9.0,62,0.01,,,0.58,845.000000,,2013-09-05 18:52:00,
2013-09-05 14:02:00,85.0,70.0,-100.00,West,260,4.0,9.0,62,0.01,,,0.58,845.000000,,2013-09-05 19:02:00,
2013-09-05 14:11:00,85.0,70.0,-100.00,West,260,4.0,9.0,62,0.01,,,0.58,845.000000,,2013-09-05 19:11:00,
2013-09-05 14:22:00,85.0,70.0,-100.00,West,260,4.0,9.0,62,0.01,,,0.58,845.000000,,2013-09-05 19:22:00,
2013-09-05 15:22:00,92.0,71.0,-100.00,SE,142,4.0,9.0,51,0.00,,,0.58,997.000000,,2013-09-05 20:22:00,
2013-09-05 15:52:00,90.0,69.0,-100.00,SE,139,6.0,10.0,51,0.00,,,0.58,875.000000,,2013-09-05 20:52:00,
2013-09-05 16:02:00,90.0,69.0,-100.00,SE,139,6.0,10.0,51,0.00,,,0.58,875.000000,,2013-09-05 21:02:00,
2013-09-05 16:12:00,90.0,69.0,-100.00,SE,139,6.0,10.0,51,0.00,,,0.58,875.000000,,2013-09-05 21:12:00,
2013-09-05 16:21:00,90.0,69.0,-100.00,SE,139,6.0,10.0,51,0.00,,,0.58,875.000000,,2013-09-05 21:21:00,
2013-09-05 16:54:00,90.0,72.0,-100.00,SSE,168,6.0,12.0,55,0.00,,,0.58,684.000000,,2013-09-05 21:54:00,
2013-09-05 17:04:00,90.0,72.0,-100.00,SSE,168,6.0,12.0,55,0.00,,,0.58,684.000000,,2013-09-05 22:04:00,
2013-09-05 17:13:00,90.0,72.0,-100.00,SSE,168,6.0,12.0,55,0.00,,,0.58,684.000000,,2013-09-05 22:13:00,
2013-09-05 17:24:00,90.0,72.0,-100.00,SSE,168,6.0,12.0,55,0.00,,,0.58,684.000000,,2013-09-05 22:24:00,
2013-09-05 17:53:00,86.0,71.0,-100.00,SSE,168,4.0,11.0,61,0.00,,,0.58,405.000000,,2013-09-05 22:53:00,
2013-09-05 18:02:00,86.0,71.0,-100.00,SSE,168,4.0,11.0,61,0.00,,,0.58,405.000000,,2013-09-05 23:02:00,
2013-09-05 18:12:00,86.0,71.0,-100.00,SSE,168,4.0,11.0,61,0.00,,,0.58,405.000000,,2013-09-05 23:12:00,
2013-09-05 18:22:00,86.0,71.0,-100.00,SSE,168,4.0,11.0,61,0.00,,,0.58,405.000000,,2013-09-05 23:22:00,
2013-09-05 18:53:00,83.0,73.0,-100.00,SSW,196,1.0,7.0,73,0.00,,,0.58,81.000000,,2013-09-05 23:53:00,
2013-09-05 19:02:00,83.0,73.0,-100.00,SSW,196,1.0,7.0,73,0.00,,,0.58,81.000000,,2013-09-06 00:02:00,
2013-09-05 19:12:00,83.0,73.0,-100.00,SSW,196,1.0,7.0,73,0.00,,,0.58,81.000000,,2013-09-06 00:12:00,
2013-09-05 19:22:00,83.0,73.0,-100.00,SSW,196,1.0,7.0,73,0.00,,,0.58,81.000000,,2013-09-06 00:22:00,
2013-09-05 19:52:00,80.0,74.0,-100.00,ENE,73,0.0,2.0,83,0.00,,,0.58,23.000000,,2013-09-06 00:52:00,
2013-09-05 20:02:00,80.0,74.0,-100.00,ENE,73,0.0,2.0,83,0.00,,,0.58,23.000000,,2013-09-06 01:02:00,
2013-09-05 20:11:00,80.0,74.0,-100.00,ENE,73,0.0,2.0,83,0.00,,,0.58,23.000000,,2013-09-06 01:11:00,
2013-09-05 20:22:00,80.0,74.0,-100.00,ENE,73,0.0,2.0,83,0.00,,,0.58,23.000000,,2013-09-06 01:22:00,
2013-09-05 20:52:00,78.0,74.0,-100.00,North,2,0.0,2.0,88,0.00,,,0.58,11.000000,,2013-09-06 01:52:00,
2013-09-05 21:02:00,78.0,74.0,-100.00,North,2,0.0,2.0,88,0.00,,,0.58,11.000000,,2013-09-06 02:02:00,
2013-09-05 21:12:00,78.0,74.0,-100.00,North,2,0.0,2.0,88,0.00,,,0.58,11.000000,,2013-09-06 02:12:00,
2013-09-05 21:22:00,78.0,74.0,-100.00,North,2,0.0,2.0,88,0.00,,,0.58,11.000000,,2013-09-06 02:22:00,
2013-09-05 21:52:00,78.0,74.0,-100.00,NNW,342,0.0,2.0,87,0.00,,,0.58,11.000000,,2013-09-06 02:52:00,
2013-09-05 22:02:00,78.0,74.0,-100.00,NNW,342,0.0,2.0,87,0.00,,,0.58,11.000000,,2013-09-06 03:02:00,
2013-09-05 22:11:00,78.0,74.0,-100.00,NNW,342,0.0,2.0,87,0.00,,,0.58,11.000000,,2013-09-06 03:11:00,
2013-09-05 22:22:00,78.0,74.0,-100.00,NNW,342,0.0,2.0,87,0.00,,,0.58,11.000000,,2013-09-06 03:22:00,
2013-09-05 22:55:00,77.0,74.0,-100.00,ENE,61,0.0,0.0,90,0.00,,,0.58,11.000000,,2013-09-06 03:55:00,
2013-09-05 23:04:00,77.0,74.0,-100.00,ENE,61,0.0,0.0,90,0.00,,,0.58,11.000000,,2013-09-06 04:04:00,
2013-09-05 23:14:00,77.0,74.0,-100.00,ENE,61,0.0,0.0,90,0.00,,,0.58,11.000000,,2013-09-06 04:14:00,
2013-09-05 23:23:00,77.0,74.0,-100.00,ENE,61,0.0,0.0,90,0.00,,,0.58,11.000000,,2013-09-06 04:23:00,
2013-09-05 23:54:00,76.0,73.0,-100.00,East,96,0.0,0.0,91,0.00,,,0.58,11.000000,,2013-09-06 04:54:00,